Clarion, Iowa
Current Conditions -  °F | °C
As of 8:35 PM on Sunday 21 Dec 2014 (Local Time) from KCAV Reporting Station
Haze Haze  
Wind Chill: -3°   Ceiling: 500
Heat Index:   Visibility: 5mi
Dew Point:   Wind: 18mph
Humidity: 100%   Direction: 170°S
Pressure: 29.74"   Gusts: NA
Location:  42.73°N, 93.73°W
Report Text: KCAV 220235Z AUTO 17016KT 5SM BR OVC005 03/03 A2974 RMK AO2
Loading
Personal Weather Stations






























Interactive Weather Map New forecast layout! Learn more

10-Day Weather Forecast

Advertisements
Track Severe Weather on mobile